Weather at Dubrovnik Ruđer Bošković Airport

Public forecast

Using degrees Celsius for public forecast. Weather courtesy of forecast.io.

Current aviation weather report (METAR) for Dubrovnik Ruđer Bošković Airport

2024/06/18 05:00 (retrieved 40 minutes ago)

LDDU 180500Z VRB01KT CAVOK 24/14 Q1017 NOSIG

Closest aviation forecast (TAF) to Dubrovnik Ruđer Bošković Airport

Forecast is more than 6 hours old.

Closest forecast is Kukës International Airport, 100.6 nm (186.3 km) ESE.

2024/06/17 18:00 Ammendment (retrieved 12 hours ago)

TAF AMD LAKU 171900Z 1718/1818 CNL